地図

経路データ

SID SEASON NUMBER BASIN SUBBASIN NAME ISO_TIME NATURE LAT LON WMO_WIND WMO_PRES WMO_AGENCY TRACK_TYPE DIST2LAND LANDFALL IFLAG USA_AGENCY USA_ATCF_ID USA_LAT USA_LON USA_RECORD USA_STATUS USA_WIND USA_PRES USA_SSHS USA_R34_NE USA_R34_SE USA_R34_SW USA_R34_NW USA_R50_NE USA_R50_SE USA_R50_SW USA_R50_NW USA_R64_NE USA_R64_SE USA_R64_SW USA_R64_NW USA_POCI USA_ROCI USA_RMW USA_EYE TOKYO_LAT TOKYO_LON TOKYO_GRADE TOKYO_WIND TOKYO_PRES TOKYO_R50_DIR TOKYO_R50_LONG TOKYO_R50_SHORT TOKYO_R30_DIR TOKYO_R30_LONG TOKYO_R30_SHORT TOKYO_LAND CMA_LAT CMA_LON CMA_CAT CMA_WIND CMA_PRES HKO_LAT HKO_LON HKO_CAT HKO_WIND HKO_PRES NEWDELHI_LAT NEWDELHI_LON NEWDELHI_GRADE NEWDELHI_WIND NEWDELHI_PRES NEWDELHI_CI NEWDELHI_DP NEWDELHI_POCI REUNION_LAT REUNION_LON REUNION_TYPE REUNION_WIND REUNION_PRES REUNION_TNUM REUNION_CI REUNION_RMW REUNION_R34_NE REUNION_R34_SE REUNION_R34_SW REUNION_R34_NW REUNION_R50_NE REUNION_R50_SE REUNION_R50_SW REUNION_R50_NW REUNION_R64_NE REUNION_R64_SE REUNION_R64_SW REUNION_R64_NW BOM_LAT BOM_LON BOM_TYPE BOM_WIND BOM_PRES BOM_TNUM BOM_CI BOM_RMW BOM_R34_NE BOM_R34_SE BOM_R34_SW BOM_R34_NW BOM_R50_NE BOM_R50_SE BOM_R50_SW BOM_R50_NW BOM_R64_NE BOM_R64_SE BOM_R64_SW BOM_R64_NW BOM_ROCI BOM_POCI BOM_EYE BOM_POS_METHOD BOM_PRES_METHOD NADI_LAT NADI_LON NADI_CAT NADI_WIND NADI_PRES WELLINGTON_LAT WELLINGTON_LON WELLINGTON_WIND WELLINGTON_PRES DS824_LAT DS824_LON DS824_STAGE DS824_WIND DS824_PRES TD9636_LAT TD9636_LON TD9636_STAGE TD9636_WIND TD9636_PRES TD9635_LAT TD9635_LON TD9635_WIND TD9635_PRES TD9635_ROCI NEUMANN_LAT NEUMANN_LON NEUMANN_CLASS NEUMANN_WIND NEUMANN_PRES MLC_LAT MLC_LON MLC_CLASS MLC_WIND MLC_PRES USA_GUST BOM_GUST BOM_GUST_PER REUNION_GUST REUNION_GUST_PER USA_SEAHGT USA_SEARAD_NE USA_SEARAD_SE USA_SEARAD_SW USA_SEARAD_NW STORM_SPEED STORM_DIR
1943198N18140 1943 40 WP MM NOT_NAMED 1943-07-17 09:00:00 NR 18.0000 140.300 main 1715 1704 __________O___ -1 18.0000 140.300 7 9 327
1943198N18140 1943 40 WP MM NOT_NAMED 1943-07-17 12:00:00 NR 18.3658 140.050 main 1689 1650 __________P___ -1 18.3658 140.050 7 9 325
1943198N18140 1943 40 WP MM NOT_NAMED 1943-07-17 15:00:00 NR 18.7051 139.789 main 1650 1605 __________P___ -1 18.7051 139.789 7 8 321
1943198N18140 1943 40 WP MM NOT_NAMED 1943-07-17 18:00:00 NR 18.9919 139.509 main 1605 1570 __________P___ -1 18.9919 139.509 7 7 312
1943198N18140 1943 40 WP MM NOT_NAMED 1943-07-17 21:00:00 NR 19.2000 139.200 main 1570 1544 __________O___ -1 19.2000 139.200 7 7 298
1943198N18140 1943 40 WP MM NOT_NAMED 1943-07-18 00:00:00 NR 19.3153 138.857 main 1544 1513 __________P___ -1 19.3153 138.857 7 7 284
1943198N18140 1943 40 WP MM NOT_NAMED 1943-07-18 03:00:00 NR 19.3724 138.486 main 1513 1493 __________P___ -1 19.3724 138.486 7 7 278
1943198N18140 1943 40 WP MM NOT_NAMED 1943-07-18 06:00:00 NR 19.4183 138.097 main 1493 1463 __________P___ -1 19.4183 138.097 7 8 280
1943198N18140 1943 40 WP MM NOT_NAMED 1943-07-18 09:00:00 NR 19.5000 137.700 main 1463 1424 __________O___ -1 19.5000 137.700 7 8 290
1943198N18140 1943 40 WP MM NOT_NAMED 1943-07-18 12:00:00 NR 19.7066 137.259 main 1424 1382 __________P___ -1 19.7066 137.259 7 9 298
1943198N18140 1943 40 WP MM NOT_NAMED 1943-07-18 15:00:00 NR 19.9506 136.819 main 1371 1334 __________P___ -1 19.9506 136.819 7 9 302
1943198N18140 1943 40 WP MM NOT_NAMED 1943-07-18 18:00:00 NR 20.1942 136.419 main 1334 1301 __________P___ -1 20.1942 136.419 7 8 304
1943198N18140 1943 40 WP MM NOT_NAMED 1943-07-18 21:00:00 NR 20.4000 136.100 main 1301 1282 __________O___ -1 20.4000 136.100 7 6 304
1943198N18140 1943 40 WP MM NOT_NAMED 1943-07-19 00:00:00 NR 20.5176 135.905 main 1282 1268 __________P___ -1 20.5176 135.905 7 3 304
1943198N18140 1943 40 WP MM NOT_NAMED 1943-07-19 03:00:00 NR 20.5944 135.794 main 1268 1264 __________P___ -1 20.5944 135.794 7 2 310
1943198N18140 1943 40 WP MM NOT_NAMED 1943-07-19 06:00:00 NR 20.6490 135.736 main 1264 1254 __________P___ -1 20.6490 135.736 7 1 320
1943198N18140 1943 40 WP MM NOT_NAMED 1943-07-19 09:00:00 NR 20.7000 135.700 main 1254 1250 __________O___ -1 20.7000 135.700 7 1 315
1943198N18140 1943 40 WP MM NOT_NAMED 1943-07-19 12:00:00 NR 20.7465 135.631 main 1250 1239 __________P___ -1 20.7465 135.631 7 2 311
1943198N18140 1943 40 WP MM NOT_NAMED 1943-07-19 15:00:00 NR 20.7975 135.577 main 1239 1225 __________P___ -1 20.7975 135.577 7 2 327
1943198N18140 1943 40 WP MM NOT_NAMED 1943-07-19 18:00:00 NR 20.8747 135.535 main 1225 1215 __________P___ -1 20.8747 135.535 7 2 342
1943198N18140 1943 40 WP MM NOT_NAMED 1943-07-19 21:00:00 NR 21.0000 135.500 main 1215 1194 __________O___ -1 21.0000 135.500 7 4 349
1943198N18140 1943 40 WP MM NOT_NAMED 1943-07-20 00:00:00 NR 21.2200 135.456 main 1194 1159 __________P___ -1 21.2200 135.456 7 5 351
1943198N18140 1943 40 WP MM NOT_NAMED 1943-07-20 03:00:00 NR 21.4850 135.420 main 1159 1138 __________P___ -1 21.4850 135.420 7 5 353
1943198N18140 1943 40 WP MM NOT_NAMED 1943-07-20 06:00:00 NR 21.7575 135.399 main 1128 1108 __________P___ -1 21.7575 135.399 7 5 0
1943198N18140 1943 40 WP MM NOT_NAMED 1943-07-20 09:00:00 NR 22.0000 135.400 main 1108 1097 __________O___ -1 22.0000 135.400 7 4 8
1943198N18140 1943 40 WP MM NOT_NAMED 1943-07-20 12:00:00 NR 22.1082 135.436 main 1097 1092 __________P___ -1 22.1082 135.436 7 2 25
1943198N18140 1943 40 WP MM NOT_NAMED 1943-07-20 15:00:00 NR 22.1900 135.492 main 1092 1081 __________P___ -1 22.1900 135.492 7 2 28
1943198N18140 1943 40 WP MM NOT_NAMED 1943-07-20 18:00:00 NR 22.3019 135.552 main 1086 1066 __________P___ -1 22.3019 135.552 7 3 17
1943198N18140 1943 40 WP MM NOT_NAMED 1943-07-20 21:00:00 NR 22.5000 135.600 main 1066 1036 __________O___ -1 22.5000 135.600 7 6 7
1943198N18140 1943 40 WP MM NOT_NAMED 1943-07-21 00:00:00 NR 22.8728 135.622 main 1026 986 __________P___ -1 22.8728 135.622 7 8 1
1943198N18140 1943 40 WP MM NOT_NAMED 1943-07-21 03:00:00 NR 23.3325 135.630 main 986 937 __________P___ -1 23.3325 135.630 7 10 0
1943198N18140 1943 40 WP MM NOT_NAMED 1943-07-21 06:00:00 NR 23.8260 135.622 main 937 889 __________P___ -1 23.8260 135.622 7 10 359
1943198N18140 1943 40 WP MM NOT_NAMED 1943-07-21 09:00:00 NR 24.3000 135.600 main 889 852 __________O___ -1 24.3000 135.600 7 9 357
1943198N18140 1943 40 WP MM NOT_NAMED 1943-07-21 12:00:00 NR 24.6706 135.572 main 852 818 __________P___ -1 24.6706 135.572 7 7 354
1943198N18140 1943 40 WP MM NOT_NAMED 1943-07-21 15:00:00 NR 25.0149 135.530 main 818 789 __________P___ -1 25.0149 135.530 7 7 353
1943198N18140 1943 40 WP MM NOT_NAMED 1943-07-21 18:00:00 NR 25.3518 135.472 main 780 746 __________P___ -1 25.3518 135.472 7 7 350
1943198N18140 1943 40 WP MM NOT_NAMED 1943-07-21 21:00:00 NR 25.7000 135.400 main 746 708 __________O___ -1 25.7000 135.400 7 8 352
1943198N18140 1943 40 WP MM NOT_NAMED 1943-07-22 00:00:00 NR 26.1097 135.350 main 708 665 __________P___ -1 26.1097 135.350 7 8 353
1943198N18140 1943 40 WP MM NOT_NAMED 1943-07-22 03:00:00 NR 26.5295 135.282 main 665 622 __________P___ -1 26.5295 135.282 7 8 349
1943198N18140 1943 40 WP MM NOT_NAMED 1943-07-22 06:00:00 NR 26.9346 135.172 main 622 575 __________P___ -1 26.9346 135.172 7 8 342
1943198N18140 1943 40 WP MM NOT_NAMED 1943-07-22 09:00:00 NR 27.3000 135.000 main 575 530 __________O___ -1 27.3000 135.000 7 8 328
1943198N18140 1943 40 WP MM NOT_NAMED 1943-07-22 12:00:00 NR 27.5898 134.704 main 530 495 __________P___ -1 27.5898 134.704 7 8 313
1943198N18140 1943 40 WP MM NOT_NAMED 1943-07-22 15:00:00 NR 27.8386 134.351 main 495 445 __________P___ -1 27.8386 134.351 7 8 307
1943198N18140 1943 40 WP MM NOT_NAMED 1943-07-22 18:00:00 NR 28.0680 133.997 main 445 410 __________P___ -1 28.0680 133.997 7 7 309
1943198N18140 1943 40 WP MM NOT_NAMED 1943-07-22 21:00:00 NR 28.3000 133.700 main 410 372 __________O___ -1 28.3000 133.700 7 7 320
1943198N18140 1943 40 WP MM NOT_NAMED 1943-07-23 00:00:00 NR 28.5673 133.526 main 372 347 __________P___ -1 28.5673 133.526 7 6 335
1943198N18140 1943 40 WP MM NOT_NAMED 1943-07-23 03:00:00 NR 28.8420 133.417 main 347 320 __________P___ -1 28.8420 133.417 7 6 344
1943198N18140 1943 40 WP MM NOT_NAMED 1943-07-23 06:00:00 NR 29.1206 133.349 main 314 287 __________P___ -1 29.1206 133.349 7 6 349
1943198N18140 1943 40 WP MM NOT_NAMED 1943-07-23 09:00:00 NR 29.4000 133.300 main 287 264 __________O___ -1 29.4000 133.300 7 5 349
1943198N18140 1943 40 WP MM NOT_NAMED 1943-07-23 12:00:00 NR 29.5938 133.247 main 264 247 __________P___ -1 29.5938 133.247 7 4 349
1943198N18140 1943 40 WP MM NOT_NAMED 1943-07-23 15:00:00 NR 29.8000 133.206 main 247 224 __________P___ -1 29.8000 133.206 7 5 352
1943198N18140 1943 40 WP MM NOT_NAMED 1943-07-23 18:00:00 NR 30.0813 133.162 main 224 190 __________P___ -1 30.0813 133.162 7 7 353
1943198N18140 1943 40 WP MM NOT_NAMED 1943-07-23 21:00:00 NR 30.5000 133.100 main 190 158 __________O___ -1 30.5000 133.100 7 10 349
1943198N18140 1943 40 WP MM NOT_NAMED 1943-07-24 00:00:00 NR 31.0790 132.944 main 146 102 __________P___ -1 31.0790 132.944 7 13 348
1943198N18140 1943 40 WP MM NOT_NAMED 1943-07-24 03:00:00 NR 31.8033 132.775 main 102 22 __________P___ -1 31.8033 132.775 7 16 351
1943198N18140 1943 40 WP MM NOT_NAMED 1943-07-24 06:00:00 NR 32.6508 132.643 main 11 0 __________P___ -1 32.6508 132.643 7 18 355
1943198N18140 1943 40 WP MM NOT_NAMED 1943-07-24 09:00:00 NR 33.6000 132.600 main 0 0 __________O___ -1 33.6000 132.600 7 20 3
1943198N18140 1943 40 WP MM NOT_NAMED 1943-07-24 12:00:00 NR 34.6921 132.748 main 0 0 __________P___ -1 34.6921 132.748 7 23 8
1943198N18140 1943 40 WP MM NOT_NAMED 1943-07-24 15:00:00 NR 35.8608 132.993 main 44 44 __________P___ -1 35.8608 132.993 7 24 10
1943198N18140 1943 40 WP MM NOT_NAMED 1943-07-24 18:00:00 NR 36.9989 133.267 main 167 167 __________P___ -1 36.9989 133.267 7 22 11
1943198N18140 1943 40 WP MM NOT_NAMED 1943-07-24 21:00:00 NR 38.0000 133.500 main 279 279 __________O___ -1 38.0000 133.500 7 18 9
1943198N18140 1943 40 WP MM NOT_NAMED 1943-07-25 00:00:00 NR 38.7454 133.614 main 314 314 __________P___ -1 38.7454 133.614 7 14 6
1943198N18140 1943 40 WP MM NOT_NAMED 1943-07-25 03:00:00 NR 39.3439 133.665 main 342 327 __________P___ -1 39.3439 133.665 7 11 2
1943198N18140 1943 40 WP MM NOT_NAMED 1943-07-25 06:00:00 NR 39.8455 133.659 main 327 271 __________P___ -1 39.8455 133.659 7 10 357
1943198N18140 1943 40 WP MM NOT_NAMED 1943-07-25 09:00:00 NR 40.3000 133.600 main 271 226 __________O___ -1 40.3000 133.600 7 9 352
1943198N18140 1943 40 WP MM NOT_NAMED 1943-07-25 12:00:00 NR 40.7484 133.494 main 226 170 __________P___ -1 40.7484 133.494 7 9 348
1943198N18140 1943 40 WP MM NOT_NAMED 1943-07-25 15:00:00 NR 41.1983 133.351 main 170 123 __________P___ -1 41.1983 133.351 7 9 345
1943198N18140 1943 40 WP MM NOT_NAMED 1943-07-25 18:00:00 NR 41.6491 133.183 main 123 66 __________P___ -1 41.6491 133.183 7 9 344
1943198N18140 1943 40 WP MM NOT_NAMED 1943-07-25 21:00:00 NR 42.1000 133.000 main 66 __________O___ -1 42.1000 133.000 7 9 343

デジタル台風データ・検索

IBTrACS Databaseについて

本データベースは、米国NOAAが公開する1842年以降の世界の熱帯低気圧のベストトラックデータアーカイブInternational Best Track Archive for Climate Stewardship (IBTrACS)を、ウェブで閲覧しやすい形式に変換したものです。

最終更新日:2021-10-21